sensor_id;sensor_type;location;lat;lon;timestamp;P1;durP1;ratioP1;P2;durP2;ratioP2
30287;SDS011;17103;48.316;11.558;2023-07-09T00:01:04;7.20;;;5.22;;
30287;SDS011;17103;48.316;11.558;2023-07-09T00:03:30;7.70;;;5.60;;
30287;SDS011;17103;48.316;11.558;2023-07-09T00:05:56;8.35;;;5.78;;
30287;SDS011;17103;48.316;11.558;2023-07-09T00:08:24;9.07;;;5.38;;
30287;SDS011;17103;48.316;11.558;2023-07-09T00:10:56;7.38;;;5.15;;
30287;SDS011;17103;48.316;11.558;2023-07-09T00:13:23;11.77;;;5.75;;
30287;SDS011;17103;48.316;11.558;2023-07-09T00:15:50;7.13;;;5.70;;
30287;SDS011;17103;48.316;11.558;2023-07-09T00:18:17;11.82;;;5.82;;
30287;SDS011;17103;48.316;11.558;2023-07-09T00:20:42;7.47;;;5.55;;
30287;SDS011;17103;48.316;11.558;2023-07-09T00:23:11;10.93;;;6.60;;
30287;SDS011;17103;48.316;11.558;2023-07-09T00:25:40;9.65;;;5.40;;
30287;SDS011;17103;48.316;11.558;2023-07-09T00:28:12;9.48;;;5.65;;
30287;SDS011;17103;48.316;11.558;2023-07-09T00:30:39;8.15;;;5.38;;
30287;SDS011;17103;48.316;11.558;2023-07-09T00:33:06;8.45;;;5.60;;
30287;SDS011;17103;48.316;11.558;2023-07-09T00:35:35;9.40;;;6.18;;
30287;SDS011;17103;48.316;11.558;2023-07-09T00:38:01;7.35;;;5.55;;
30287;SDS011;17103;48.316;11.558;2023-07-09T00:40:27;8.70;;;5.75;;
30287;SDS011;17103;48.316;11.558;2023-07-09T00:42:54;10.43;;;6.40;;
30287;SDS011;17103;48.316;11.558;2023-07-09T00:45:22;10.18;;;5.75;;
30287;SDS011;17103;48.316;11.558;2023-07-09T00:48:00;10.68;;;6.47;;
30287;SDS011;17103;48.316;11.558;2023-07-09T00:53:08;8.95;;;5.53;;
30287;SDS011;17103;48.316;11.558;2023-07-09T00:55:42;11.38;;;7.10;;
30287;SDS011;17103;48.316;11.558;2023-07-09T00:58:12;11.00;;;5.93;;
30287;SDS011;17103;48.316;11.558;2023-07-09T01:00:44;7.38;;;6.07;;
30287;SDS011;17103;48.316;11.558;2023-07-09T01:03:55;10.10;;;6.40;;
30287;SDS011;17103;48.316;11.558;2023-07-09T01:06:05;8.57;;;6.60;;
30287;SDS011;17103;48.316;11.558;2023-07-09T01:08:32;8.85;;;6.53;;
30287;SDS011;17103;48.316;11.558;2023-07-09T01:10:59;10.07;;;5.88;;
30287;SDS011;17103;48.316;11.558;2023-07-09T01:13:26;10.30;;;5.95;;
30287;SDS011;17103;48.316;11.558;2023-07-09T01:15:53;9.98;;;6.57;;
30287;SDS011;17103;48.316;11.558;2023-07-09T01:18:20;8.20;;;5.68;;
30287;SDS011;17103;48.316;11.558;2023-07-09T01:20:46;7.70;;;5.75;;
30287;SDS011;17103;48.316;11.558;2023-07-09T01:23:13;8.27;;;5.60;;
30287;SDS011;17103;48.316;11.558;2023-07-09T01:25:50;8.68;;;5.82;;
30287;SDS011;17103;48.316;11.558;2023-07-09T01:28:19;7.93;;;6.00;;
30287;SDS011;17103;48.316;11.558;2023-07-09T01:30:45;9.73;;;5.50;;
30287;SDS011;17103;48.316;11.558;2023-07-09T01:33:14;8.18;;;4.68;;
30287;SDS011;17103;48.316;11.558;2023-07-09T01:35:39;11.38;;;5.90;;
30287;SDS011;17103;48.316;11.558;2023-07-09T01:38:07;8.82;;;5.53;;
30287;SDS011;17103;48.316;11.558;2023-07-09T01:40:33;8.13;;;5.68;;
30287;SDS011;17103;48.316;11.558;2023-07-09T01:43:00;10.00;;;4.75;;
30287;SDS011;17103;48.316;11.558;2023-07-09T01:45:31;10.35;;;5.72;;
30287;SDS011;17103;48.316;11.558;2023-07-09T01:47:58;8.80;;;5.47;;
30287;SDS011;17103;48.316;11.558;2023-07-09T01:50:24;8.55;;;5.60;;
30287;SDS011;17103;48.316;11.558;2023-07-09T01:52:51;9.65;;;5.53;;
30287;SDS011;17103;48.316;11.558;2023-07-09T01:55:18;8.50;;;5.38;;
30287;SDS011;17103;48.316;11.558;2023-07-09T01:57:44;8.75;;;5.10;;
30287;SDS011;17103;48.316;11.558;2023-07-09T02:00:11;8.75;;;5.25;;
30287;SDS011;17103;48.316;11.558;2023-07-09T02:02:39;9.75;;;5.47;;
30287;SDS011;17103;48.316;11.558;2023-07-09T02:05:08;9.05;;;5.85;;
30287;SDS011;17103;48.316;11.558;2023-07-09T02:07:35;10.25;;;5.57;;
30287;SDS011;17103;48.316;11.558;2023-07-09T02:10:00;7.72;;;5.47;;
30287;SDS011;17103;48.316;11.558;2023-07-09T02:12:27;10.40;;;7.05;;
30287;SDS011;17103;48.316;11.558;2023-07-09T02:14:52;9.73;;;6.05;;
30287;SDS011;17103;48.316;11.558;2023-07-09T02:17:18;8.02;;;5.78;;
30287;SDS011;17103;48.316;11.558;2023-07-09T02:19:44;7.13;;;5.70;;
30287;SDS011;17103;48.316;11.558;2023-07-09T02:22:10;8.80;;;5.40;;
30287;SDS011;17103;48.316;11.558;2023-07-09T02:24:36;9.55;;;5.55;;
30287;SDS011;17103;48.316;11.558;2023-07-09T02:27:03;8.10;;;5.15;;
30287;SDS011;17103;48.316;11.558;2023-07-09T02:29:31;8.82;;;5.53;;
30287;SDS011;17103;48.316;11.558;2023-07-09T02:31:58;7.63;;;5.32;;
30287;SDS011;17103;48.316;11.558;2023-07-09T02:34:28;9.05;;;5.97;;
30287;SDS011;17103;48.316;11.558;2023-07-09T02:36:55;7.25;;;5.25;;
30287;SDS011;17103;48.316;11.558;2023-07-09T02:39:22;8.18;;;5.45;;
30287;SDS011;17103;48.316;11.558;2023-07-09T02:41:49;8.48;;;5.15;;
30287;SDS011;17103;48.316;11.558;2023-07-09T02:44:15;10.52;;;5.55;;
30287;SDS011;17103;48.316;11.558;2023-07-09T02:46:42;8.55;;;5.90;;
30287;SDS011;17103;48.316;11.558;2023-07-09T02:49:09;8.85;;;6.13;;
30287;SDS011;17103;48.316;11.558;2023-07-09T02:51:36;10.05;;;5.93;;
30287;SDS011;17103;48.316;11.558;2023-07-09T02:54:02;9.80;;;5.45;;
30287;SDS011;17103;48.316;11.558;2023-07-09T02:56:29;8.38;;;5.40;;
30287;SDS011;17103;48.316;11.558;2023-07-09T02:58:55;9.60;;;6.20;;
30287;SDS011;17103;48.316;11.558;2023-07-09T03:01:21;10.32;;;6.45;;
30287;SDS011;17103;48.316;11.558;2023-07-09T03:03:53;7.50;;;5.35;;
30287;SDS011;17103;48.316;11.558;2023-07-09T03:06:23;8.80;;;5.97;;
30287;SDS011;17103;48.316;11.558;2023-07-09T03:08:50;7.47;;;5.38;;
30287;SDS011;17103;48.316;11.558;2023-07-09T03:11:16;8.48;;;5.85;;
30287;SDS011;17103;48.316;11.558;2023-07-09T03:13:42;7.13;;;4.97;;
30287;SDS011;17103;48.316;11.558;2023-07-09T03:16:08;8.25;;;5.30;;
30287;SDS011;17103;48.316;11.558;2023-07-09T03:18:34;8.18;;;4.90;;
30287;SDS011;17103;48.316;11.558;2023-07-09T03:21:00;8.40;;;5.85;;
30287;SDS011;17103;48.316;11.558;2023-07-09T03:23:25;7.97;;;5.30;;
30287;SDS011;17103;48.316;11.558;2023-07-09T03:25:51;10.13;;;5.53;;
30287;SDS011;17103;48.316;11.558;2023-07-09T03:28:17;7.00;;;5.15;;
30287;SDS011;17103;48.316;11.558;2023-07-09T03:30:46;8.25;;;5.13;;
30287;SDS011;17103;48.316;11.558;2023-07-09T03:33:13;8.88;;;5.20;;
30287;SDS011;17103;48.316;11.558;2023-07-09T03:35:40;7.93;;;5.03;;
30287;SDS011;17103;48.316;11.558;2023-07-09T03:38:07;7.03;;;5.00;;
30287;SDS011;17103;48.316;11.558;2023-07-09T03:40:33;9.88;;;5.00;;
30287;SDS011;17103;48.316;11.558;2023-07-09T03:42:59;9.88;;;5.53;;
30287;SDS011;17103;48.316;11.558;2023-07-09T03:45:25;6.63;;;4.65;;
30287;SDS011;17103;48.316;11.558;2023-07-09T03:47:51;9.32;;;5.20;;
30287;SDS011;17103;48.316;11.558;2023-07-09T03:50:17;6.70;;;5.00;;
30287;SDS011;17103;48.316;11.558;2023-07-09T03:52:43;7.15;;;5.15;;
30287;SDS011;17103;48.316;11.558;2023-07-09T03:55:09;6.82;;;4.75;;
30287;SDS011;17103;48.316;11.558;2023-07-09T03:57:35;6.75;;;4.25;;
30287;SDS011;17103;48.316;11.558;2023-07-09T04:00:01;6.95;;;4.72;;
30287;SDS011;17103;48.316;11.558;2023-07-09T04:02:28;9.27;;;4.43;;
30287;SDS011;17103;48.316;11.558;2023-07-09T04:04:54;6.97;;;4.45;;
30287;SDS011;17103;48.316;11.558;2023-07-09T04:07:20;7.22;;;4.70;;
30287;SDS011;17103;48.316;11.558;2023-07-09T04:09:46;10.07;;;4.10;;
30287;SDS011;17103;48.316;11.558;2023-07-09T04:12:11;7.22;;;4.65;;
30287;SDS011;17103;48.316;11.558;2023-07-09T04:14:37;6.57;;;5.00;;
30287;SDS011;17103;48.316;11.558;2023-07-09T04:17:03;7.65;;;4.22;;
30287;SDS011;17103;48.316;11.558;2023-07-09T04:19:28;6.78;;;4.88;;
30287;SDS011;17103;48.316;11.558;2023-07-09T04:21:54;7.35;;;4.15;;
30287;SDS011;17103;48.316;11.558;2023-07-09T04:24:20;10.32;;;5.35;;
30287;SDS011;17103;48.316;11.558;2023-07-09T04:26:46;8.48;;;5.05;;
30287;SDS011;17103;48.316;11.558;2023-07-09T04:29:12;8.73;;;4.45;;
30287;SDS011;17103;48.316;11.558;2023-07-09T04:31:38;7.25;;;4.90;;
30287;SDS011;17103;48.316;11.558;2023-07-09T04:34:04;6.90;;;4.65;;
30287;SDS011;17103;48.316;11.558;2023-07-09T04:36:30;7.38;;;4.88;;
30287;SDS011;17103;48.316;11.558;2023-07-09T04:38:56;7.15;;;5.25;;
30287;SDS011;17103;48.316;11.558;2023-07-09T04:41:22;8.35;;;5.03;;
30287;SDS011;17103;48.316;11.558;2023-07-09T04:43:48;6.55;;;4.50;;
30287;SDS011;17103;48.316;11.558;2023-07-09T04:46:14;7.43;;;4.50;;
30287;SDS011;17103;48.316;11.558;2023-07-09T04:48:40;5.60;;;4.22;;
30287;SDS011;17103;48.316;11.558;2023-07-09T04:51:06;7.88;;;4.47;;
30287;SDS011;17103;48.316;11.558;2023-07-09T04:53:31;8.07;;;4.38;;
30287;SDS011;17103;48.316;11.558;2023-07-09T04:55:57;8.63;;;5.43;;
30287;SDS011;17103;48.316;11.558;2023-07-09T04:58:23;7.15;;;5.05;;
30287;SDS011;17103;48.316;11.558;2023-07-09T05:00:48;5.97;;;4.72;;
30287;SDS011;17103;48.316;11.558;2023-07-09T05:03:16;7.28;;;5.07;;
30287;SDS011;17103;48.316;11.558;2023-07-09T05:05:46;7.53;;;4.75;;
30287;SDS011;17103;48.316;11.558;2023-07-09T05:08:12;6.90;;;4.75;;
30287;SDS011;17103;48.316;11.558;2023-07-09T05:10:45;6.53;;;3.90;;
30287;SDS011;17103;48.316;11.558;2023-07-09T05:13:12;7.30;;;4.50;;
30287;SDS011;17103;48.316;11.558;2023-07-09T05:15:42;8.63;;;4.00;;
30287;SDS011;17103;48.316;11.558;2023-07-09T05:18:09;7.57;;;4.47;;
30287;SDS011;17103;48.316;11.558;2023-07-09T05:20:39;5.82;;;4.05;;
30287;SDS011;17103;48.316;11.558;2023-07-09T05:23:05;6.82;;;4.25;;
30287;SDS011;17103;48.316;11.558;2023-07-09T05:25:31;4.03;;;3.35;;
30287;SDS011;17103;48.316;11.558;2023-07-09T05:27:57;6.47;;;4.75;;
30287;SDS011;17103;48.316;11.558;2023-07-09T05:30:22;5.95;;;3.80;;
30287;SDS011;17103;48.316;11.558;2023-07-09T05:32:48;7.55;;;4.50;;
30287;SDS011;17103;48.316;11.558;2023-07-09T05:35:14;6.25;;;4.00;;
30287;SDS011;17103;48.316;11.558;2023-07-09T05:37:40;8.00;;;4.65;;
30287;SDS011;17103;48.316;11.558;2023-07-09T05:40:06;6.70;;;4.43;;
30287;SDS011;17103;48.316;11.558;2023-07-09T05:42:33;5.82;;;4.25;;
30287;SDS011;17103;48.316;11.558;2023-07-09T05:44:59;6.28;;;4.50;;
30287;SDS011;17103;48.316;11.558;2023-07-09T05:47:25;7.53;;;4.43;;
30287;SDS011;17103;48.316;11.558;2023-07-09T05:49:51;5.80;;;4.32;;
30287;SDS011;17103;48.316;11.558;2023-07-09T05:52:18;6.25;;;4.85;;
30287;SDS011;17103;48.316;11.558;2023-07-09T05:54:51;5.47;;;3.80;;
30287;SDS011;17103;48.316;11.558;2023-07-09T05:57:18;6.97;;;4.32;;
30287;SDS011;17103;48.316;11.558;2023-07-09T05:59:44;6.50;;;3.85;;
30287;SDS011;17103;48.316;11.558;2023-07-09T06:02:11;8.20;;;4.30;;
30287;SDS011;17103;48.316;11.558;2023-07-09T06:04:38;9.10;;;3.75;;
30287;SDS011;17103;48.316;11.558;2023-07-09T06:07:04;6.15;;;3.88;;
30287;SDS011;17103;48.316;11.558;2023-07-09T06:09:30;5.18;;;3.92;;
30287;SDS011;17103;48.316;11.558;2023-07-09T06:11:56;6.50;;;3.85;;
30287;SDS011;17103;48.316;11.558;2023-07-09T06:14:22;6.25;;;4.25;;
30287;SDS011;17103;48.316;11.558;2023-07-09T06:16:48;5.85;;;3.88;;
30287;SDS011;17103;48.316;11.558;2023-07-09T06:19:14;4.50;;;3.83;;
30287;SDS011;17103;48.316;11.558;2023-07-09T06:21:40;6.95;;;4.13;;
30287;SDS011;17103;48.316;11.558;2023-07-09T06:24:06;6.57;;;3.92;;
30287;SDS011;17103;48.316;11.558;2023-07-09T06:26:32;7.38;;;4.68;;
30287;SDS011;17103;48.316;11.558;2023-07-09T06:28:58;6.10;;;3.70;;
30287;SDS011;17103;48.316;11.558;2023-07-09T06:31:24;8.52;;;4.45;;
30287;SDS011;17103;48.316;11.558;2023-07-09T06:33:50;7.53;;;3.92;;
30287;SDS011;17103;48.316;11.558;2023-07-09T06:36:16;7.18;;;3.85;;
30287;SDS011;17103;48.316;11.558;2023-07-09T06:38:43;4.85;;;3.30;;
30287;SDS011;17103;48.316;11.558;2023-07-09T06:41:09;6.95;;;3.53;;
30287;SDS011;17103;48.316;11.558;2023-07-09T06:43:35;4.45;;;3.30;;
30287;SDS011;17103;48.316;11.558;2023-07-09T06:46:04;9.27;;;3.75;;
30287;SDS011;17103;48.316;11.558;2023-07-09T06:48:31;5.22;;;3.55;;
30287;SDS011;17103;48.316;11.558;2023-07-09T06:50:58;7.20;;;3.22;;
30287;SDS011;17103;48.316;11.558;2023-07-09T06:53:25;3.45;;;3.08;;
30287;SDS011;17103;48.316;11.558;2023-07-09T06:55:51;5.78;;;3.40;;
30287;SDS011;17103;48.316;11.558;2023-07-09T06:58:20;6.10;;;3.47;;
30287;SDS011;17103;48.316;11.558;2023-07-09T07:00:51;6.35;;;3.00;;
30287;SDS011;17103;48.316;11.558;2023-07-09T07:03:17;6.20;;;3.63;;
30287;SDS011;17103;48.316;11.558;2023-07-09T07:05:44;8.10;;;3.50;;
30287;SDS011;17103;48.316;11.558;2023-07-09T07:08:10;3.20;;;2.50;;
30287;SDS011;17103;48.316;11.558;2023-07-09T07:10:38;4.55;;;3.20;;
30287;SDS011;17103;48.316;11.558;2023-07-09T07:13:03;7.38;;;2.85;;
30287;SDS011;17103;48.316;11.558;2023-07-09T07:15:29;5.57;;;3.42;;
30287;SDS011;17103;48.316;11.558;2023-07-09T07:17:55;7.18;;;3.50;;
30287;SDS011;17103;48.316;11.558;2023-07-09T07:20:20;4.00;;;2.55;;
30287;SDS011;17103;48.316;11.558;2023-07-09T07:22:46;3.92;;;2.92;;
30287;SDS011;17103;48.316;11.558;2023-07-09T07:25:12;5.72;;;3.55;;
30287;SDS011;17103;48.316;11.558;2023-07-09T07:27:38;5.53;;;3.08;;
30287;SDS011;17103;48.316;11.558;2023-07-09T07:30:04;4.40;;;2.83;;
30287;SDS011;17103;48.316;11.558;2023-07-09T07:32:34;5.57;;;2.80;;
30287;SDS011;17103;48.316;11.558;2023-07-09T07:35:01;3.60;;;2.50;;
30287;SDS011;17103;48.316;11.558;2023-07-09T07:37:27;4.68;;;3.00;;
30287;SDS011;17103;48.316;11.558;2023-07-09T07:39:52;4.85;;;2.45;;
30287;SDS011;17103;48.316;11.558;2023-07-09T07:42:18;4.13;;;2.67;;
30287;SDS011;17103;48.316;11.558;2023-07-09T07:44:47;4.13;;;2.80;;
30287;SDS011;17103;48.316;11.558;2023-07-09T07:47:13;4.40;;;2.92;;
30287;SDS011;17103;48.316;11.558;2023-07-09T07:49:38;5.35;;;3.13;;
30287;SDS011;17103;48.316;11.558;2023-07-09T07:52:06;4.93;;;2.80;;
30287;SDS011;17103;48.316;11.558;2023-07-09T07:54:32;7.15;;;2.45;;
30287;SDS011;17103;48.316;11.558;2023-07-09T07:56:58;3.72;;;2.40;;
30287;SDS011;17103;48.316;11.558;2023-07-09T07:59:24;3.58;;;2.45;;
30287;SDS011;17103;48.316;11.558;2023-07-09T08:01:49;4.93;;;2.72;;
30287;SDS011;17103;48.316;11.558;2023-07-09T08:04:15;3.72;;;2.40;;
30287;SDS011;17103;48.316;11.558;2023-07-09T08:06:41;4.97;;;2.80;;
30287;SDS011;17103;48.316;11.558;2023-07-09T08:09:07;5.18;;;2.67;;
30287;SDS011;17103;48.316;11.558;2023-07-09T08:11:33;4.53;;;2.40;;
30287;SDS011;17103;48.316;11.558;2023-07-09T08:13:59;4.75;;;2.35;;
30287;SDS011;17103;48.316;11.558;2023-07-09T08:16:25;4.45;;;2.35;;
30287;SDS011;17103;48.316;11.558;2023-07-09T08:18:51;4.13;;;2.13;;
30287;SDS011;17103;48.316;11.558;2023-07-09T08:21:17;4.97;;;2.13;;
30287;SDS011;17103;48.316;11.558;2023-07-09T08:23:44;5.25;;;2.40;;
30287;SDS011;17103;48.316;11.558;2023-07-09T08:26:10;4.18;;;2.58;;
30287;SDS011;17103;48.316;11.558;2023-07-09T08:28:36;6.38;;;2.45;;
30287;SDS011;17103;48.316;11.558;2023-07-09T08:31:02;7.03;;;2.65;;
30287;SDS011;17103;48.316;11.558;2023-07-09T08:33:29;5.00;;;2.10;;
30287;SDS011;17103;48.316;11.558;2023-07-09T08:35:55;2.88;;;2.08;;
30287;SDS011;17103;48.316;11.558;2023-07-09T08:38:22;5.43;;;2.47;;
30287;SDS011;17103;48.316;11.558;2023-07-09T08:40:58;4.43;;;2.40;;
30287;SDS011;17103;48.316;11.558;2023-07-09T08:49:41;3.55;;;2.17;;
30287;SDS011;17103;48.316;11.558;2023-07-09T08:55:04;3.80;;;2.22;;
30287;SDS011;17103;48.316;11.558;2023-07-09T08:57:37;4.88;;;2.75;;
30287;SDS011;17103;48.316;11.558;2023-07-09T09:00:10;5.35;;;2.45;;
30287;SDS011;17103;48.316;11.558;2023-07-09T09:05:24;5.60;;;2.60;;
30287;SDS011;17103;48.316;11.558;2023-07-09T09:07:58;6.60;;;2.42;;
30287;SDS011;17103;48.316;11.558;2023-07-09T09:10:33;5.07;;;2.15;;
30287;SDS011;17103;48.316;11.558;2023-07-09T09:13:15;5.68;;;2.72;;
30287;SDS011;17103;48.316;11.558;2023-07-09T09:15:43;5.13;;;2.45;;
30287;SDS011;17103;48.316;11.558;2023-07-09T09:18:19;5.63;;;2.45;;
30287;SDS011;17103;48.316;11.558;2023-07-09T09:21:01;4.38;;;2.00;;
30287;SDS011;17103;48.316;11.558;2023-07-09T09:23:40;3.70;;;2.40;;
30287;SDS011;17103;48.316;11.558;2023-07-09T09:26:23;6.47;;;2.60;;
30287;SDS011;17103;48.316;11.558;2023-07-09T09:28:53;3.13;;;1.77;;
30287;SDS011;17103;48.316;11.558;2023-07-09T09:31:19;4.35;;;2.13;;
30287;SDS011;17103;48.316;11.558;2023-07-09T09:33:46;7.38;;;2.60;;
30287;SDS011;17103;48.316;11.558;2023-07-09T09:36:18;4.60;;;2.30;;
30287;SDS011;17103;48.316;11.558;2023-07-09T09:38:46;5.03;;;2.40;;
30287;SDS011;17103;48.316;11.558;2023-07-09T09:41:19;5.70;;;2.50;;
30287;SDS011;17103;48.316;11.558;2023-07-09T09:43:48;5.45;;;2.47;;
30287;SDS011;17103;48.316;11.558;2023-07-09T09:46:16;5.00;;;2.83;;
30287;SDS011;17103;48.316;11.558;2023-07-09T09:48:44;5.63;;;2.58;;
30287;SDS011;17103;48.316;11.558;2023-07-09T09:51:12;4.22;;;2.30;;
30287;SDS011;17103;48.316;11.558;2023-07-09T09:53:39;4.30;;;1.90;;
30287;SDS011;17103;48.316;11.558;2023-07-09T09:56:14;4.75;;;2.38;;
30287;SDS011;17103;48.316;11.558;2023-07-09T09:58:44;5.88;;;2.67;;
30287;SDS011;17103;48.316;11.558;2023-07-09T10:01:17;5.18;;;2.38;;
30287;SDS011;17103;48.316;11.558;2023-07-09T10:03:43;4.90;;;2.45;;
30287;SDS011;17103;48.316;11.558;2023-07-09T10:08:59;6.38;;;2.95;;
30287;SDS011;17103;48.316;11.558;2023-07-09T10:11:44;5.65;;;2.30;;
30287;SDS011;17103;48.316;11.558;2023-07-09T10:14:31;4.47;;;2.63;;
30287;SDS011;17103;48.316;11.558;2023-07-09T10:22:28;7.55;;;3.17;;
30287;SDS011;17103;48.316;11.558;2023-07-09T10:25:06;5.47;;;2.63;;
30287;SDS011;17103;48.316;11.558;2023-07-09T10:33:09;3.50;;;2.45;;
30287;SDS011;17103;48.316;11.558;2023-07-09T10:35:51;3.45;;;2.30;;
30287;SDS011;17103;48.316;11.558;2023-07-09T10:39:11;4.15;;;2.05;;
30287;SDS011;17103;48.316;11.558;2023-07-09T10:41:32;4.25;;;2.80;;
30287;SDS011;17103;48.316;11.558;2023-07-09T10:46:47;3.80;;;2.33;;
30287;SDS011;17103;48.316;11.558;2023-07-09T10:49:16;3.65;;;2.53;;
30287;SDS011;17103;48.316;11.558;2023-07-09T10:56:47;7.45;;;2.40;;
30287;SDS011;17103;48.316;11.558;2023-07-09T11:04:55;6.85;;;3.20;;
30287;SDS011;17103;48.316;11.558;2023-07-09T11:09:57;3.83;;;2.50;;
30287;SDS011;17103;48.316;11.558;2023-07-09T11:15:16;5.07;;;2.97;;
30287;SDS011;17103;48.316;11.558;2023-07-09T11:17:48;5.47;;;2.95;;
30287;SDS011;17103;48.316;11.558;2023-07-09T11:20:27;3.65;;;2.40;;
30287;SDS011;17103;48.316;11.558;2023-07-09T11:23:02;2.80;;;1.92;;
30287;SDS011;17103;48.316;11.558;2023-07-09T11:28:12;5.88;;;2.42;;
30287;SDS011;17103;48.316;11.558;2023-07-09T11:30:52;5.55;;;2.85;;
30287;SDS011;17103;48.316;11.558;2023-07-09T11:36:06;2.95;;;2.25;;
30287;SDS011;17103;48.316;11.558;2023-07-09T11:38:40;3.80;;;2.22;;
30287;SDS011;17103;48.316;11.558;2023-07-09T11:44:20;4.53;;;2.83;;
30287;SDS011;17103;48.316;11.558;2023-07-09T11:49:59;3.33;;;2.22;;
30287;SDS011;17103;48.316;11.558;2023-07-09T11:52:39;3.47;;;2.47;;
30287;SDS011;17103;48.316;11.558;2023-07-09T11:55:39;5.72;;;2.75;;
30287;SDS011;17103;48.316;11.558;2023-07-09T11:58:10;4.55;;;2.25;;
30287;SDS011;17103;48.316;11.558;2023-07-09T12:00:42;3.00;;;2.40;;
30287;SDS011;17103;48.316;11.558;2023-07-09T12:03:11;5.35;;;2.67;;
30287;SDS011;17103;48.316;11.558;2023-07-09T12:05:52;4.72;;;2.58;;
30287;SDS011;17103;48.316;11.558;2023-07-09T12:08:36;4.45;;;2.22;;
30287;SDS011;17103;48.316;11.558;2023-07-09T12:11:03;3.80;;;2.30;;
30287;SDS011;17103;48.316;11.558;2023-07-09T12:13:36;5.35;;;2.13;;
30287;SDS011;17103;48.316;11.558;2023-07-09T12:16:02;2.72;;;2.20;;
30287;SDS011;17103;48.316;11.558;2023-07-09T12:18:28;4.18;;;2.40;;
30287;SDS011;17103;48.316;11.558;2023-07-09T12:20:54;4.97;;;2.28;;
30287;SDS011;17103;48.316;11.558;2023-07-09T12:23:28;4.47;;;2.00;;
30287;SDS011;17103;48.316;11.558;2023-07-09T12:25:56;3.90;;;2.20;;
30287;SDS011;17103;48.316;11.558;2023-07-09T12:28:26;4.72;;;2.42;;
30287;SDS011;17103;48.316;11.558;2023-07-09T12:30:53;3.95;;;2.55;;
30287;SDS011;17103;48.316;11.558;2023-07-09T12:33:22;3.25;;;2.20;;
30287;SDS011;17103;48.316;11.558;2023-07-09T12:35:57;4.28;;;1.88;;
30287;SDS011;17103;48.316;11.558;2023-07-09T12:38:26;4.80;;;2.75;;
30287;SDS011;17103;48.316;11.558;2023-07-09T12:40:56;4.28;;;2.25;;
30287;SDS011;17103;48.316;11.558;2023-07-09T12:43:28;3.22;;;2.05;;
30287;SDS011;17103;48.316;11.558;2023-07-09T12:45:57;4.88;;;2.50;;
30287;SDS011;17103;48.316;11.558;2023-07-09T12:48:25;4.78;;;2.47;;
30287;SDS011;17103;48.316;11.558;2023-07-09T12:50:54;3.22;;;1.88;;
30287;SDS011;17103;48.316;11.558;2023-07-09T12:53:28;6.68;;;2.40;;
30287;SDS011;17103;48.316;11.558;2023-07-09T12:55:55;5.28;;;2.38;;
30287;SDS011;17103;48.316;11.558;2023-07-09T12:58:23;2.90;;;2.20;;
30287;SDS011;17103;48.316;11.558;2023-07-09T13:00:53;3.17;;;2.10;;
30287;SDS011;17103;48.316;11.558;2023-07-09T13:03:20;3.08;;;1.83;;
30287;SDS011;17103;48.316;11.558;2023-07-09T13:05:53;3.50;;;2.05;;
30287;SDS011;17103;48.316;11.558;2023-07-09T13:08:25;3.55;;;1.85;;
30287;SDS011;17103;48.316;11.558;2023-07-09T13:10:52;3.42;;;2.05;;
30287;SDS011;17103;48.316;11.558;2023-07-09T13:13:19;3.15;;;2.35;;
30287;SDS011;17103;48.316;11.558;2023-07-09T13:18:24;3.03;;;2.05;;
30287;SDS011;17103;48.316;11.558;2023-07-09T13:20:50;4.05;;;2.17;;
30287;SDS011;17103;48.316;11.558;2023-07-09T13:23:23;5.65;;;2.38;;
30287;SDS011;17103;48.316;11.558;2023-07-09T13:25:53;4.88;;;1.88;;
30287;SDS011;17103;48.316;11.558;2023-07-09T13:30:52;3.00;;;2.25;;
30287;SDS011;17103;48.316;11.558;2023-07-09T13:33:22;3.85;;;2.10;;
30287;SDS011;17103;48.316;11.558;2023-07-09T13:35:48;3.05;;;1.80;;
30287;SDS011;17103;48.316;11.558;2023-07-09T13:38:18;6.20;;;2.45;;
30287;SDS011;17103;48.316;11.558;2023-07-09T13:40:45;2.72;;;2.15;;
30287;SDS011;17103;48.316;11.558;2023-07-09T13:43:19;2.17;;;1.80;;
30287;SDS011;17103;48.316;11.558;2023-07-09T13:45:51;3.35;;;2.17;;
30287;SDS011;17103;48.316;11.558;2023-07-09T13:48:18;3.53;;;2.42;;
30287;SDS011;17103;48.316;11.558;2023-07-09T13:50:47;4.32;;;2.55;;
30287;SDS011;17103;48.316;11.558;2023-07-09T13:53:17;6.28;;;2.53;;
30287;SDS011;17103;48.316;11.558;2023-07-09T13:55:45;4.20;;;2.20;;
30287;SDS011;17103;48.316;11.558;2023-07-09T13:58:12;4.45;;;2.15;;
30287;SDS011;17103;48.316;11.558;2023-07-09T14:00:40;3.80;;;2.25;;
30287;SDS011;17103;48.316;11.558;2023-07-09T14:03:10;4.75;;;2.55;;
30287;SDS011;17103;48.316;11.558;2023-07-09T14:05:45;4.43;;;2.22;;
30287;SDS011;17103;48.316;11.558;2023-07-09T14:08:12;3.85;;;1.88;;
30287;SDS011;17103;48.316;11.558;2023-07-09T14:10:37;2.50;;;1.50;;
30287;SDS011;17103;48.316;11.558;2023-07-09T14:13:03;5.15;;;2.40;;
30287;SDS011;17103;48.316;11.558;2023-07-09T14:15:30;3.80;;;1.83;;
30287;SDS011;17103;48.316;11.558;2023-07-09T14:17:55;3.83;;;2.38;;
30287;SDS011;17103;48.316;11.558;2023-07-09T14:20:21;3.78;;;1.73;;
30287;SDS011;17103;48.316;11.558;2023-07-09T14:22:48;3.90;;;2.50;;
30287;SDS011;17103;48.316;11.558;2023-07-09T14:25:16;2.67;;;1.83;;
30287;SDS011;17103;48.316;11.558;2023-07-09T14:27:44;4.95;;;2.03;;
30287;SDS011;17103;48.316;11.558;2023-07-09T14:30:13;5.43;;;1.98;;
30287;SDS011;17103;48.316;11.558;2023-07-09T14:32:40;4.57;;;2.30;;
30287;SDS011;17103;48.316;11.558;2023-07-09T14:35:15;3.35;;;2.00;;
30287;SDS011;17103;48.316;11.558;2023-07-09T14:37:49;3.20;;;2.00;;
30287;SDS011;17103;48.316;11.558;2023-07-09T14:40:17;2.67;;;2.10;;
30287;SDS011;17103;48.316;11.558;2023-07-09T14:42:45;3.83;;;2.03;;
30287;SDS011;17103;48.316;11.558;2023-07-09T14:45:19;4.75;;;2.40;;
30287;SDS011;17103;48.316;11.558;2023-07-09T14:47:51;3.92;;;1.80;;
30287;SDS011;17103;48.316;11.558;2023-07-09T14:50:17;4.97;;;2.55;;
30287;SDS011;17103;48.316;11.558;2023-07-09T14:52:45;4.97;;;2.83;;
30287;SDS011;17103;48.316;11.558;2023-07-09T14:55:16;3.08;;;1.85;;
30287;SDS011;17103;48.316;11.558;2023-07-09T14:57:46;3.17;;;2.22;;
30287;SDS011;17103;48.316;11.558;2023-07-09T15:00:13;5.45;;;2.50;;
30287;SDS011;17103;48.316;11.558;2023-07-09T15:02:44;3.40;;;1.77;;
30287;SDS011;17103;48.316;11.558;2023-07-09T15:05:15;3.97;;;1.98;;
30287;SDS011;17103;48.316;11.558;2023-07-09T15:10:23;3.75;;;1.73;;
30287;SDS011;17103;48.316;11.558;2023-07-09T15:12:51;4.45;;;2.90;;
30287;SDS011;17103;48.316;11.558;2023-07-09T15:15:23;3.17;;;1.67;;
30287;SDS011;17103;48.316;11.558;2023-07-09T15:17:58;3.10;;;2.00;;
30287;SDS011;17103;48.316;11.558;2023-07-09T15:20:42;4.97;;;2.00;;
30287;SDS011;17103;48.316;11.558;2023-07-09T15:23:15;3.20;;;1.67;;
30287;SDS011;17103;48.316;11.558;2023-07-09T15:25:41;4.65;;;2.33;;
30287;SDS011;17103;48.316;11.558;2023-07-09T15:28:11;2.65;;;2.30;;
30287;SDS011;17103;48.316;11.558;2023-07-09T15:30:37;2.63;;;2.00;;
30287;SDS011;17103;48.316;11.558;2023-07-09T15:33:05;5.70;;;2.42;;
30287;SDS011;17103;48.316;11.558;2023-07-09T15:35:39;8.57;;;2.58;;
30287;SDS011;17103;48.316;11.558;2023-07-09T15:40:42;4.97;;;2.28;;
30287;SDS011;17103;48.316;11.558;2023-07-09T15:43:08;5.10;;;1.83;;
30287;SDS011;17103;48.316;11.558;2023-07-09T15:45:50;4.97;;;1.98;;
30287;SDS011;17103;48.316;11.558;2023-07-09T15:50:58;3.53;;;2.20;;
30287;SDS011;17103;48.316;11.558;2023-07-09T15:53:24;3.53;;;1.75;;